Station Historical Data
Daily Summary for August 6, 2017 Units:  English    Metric   Both
« Previous Day
Next Day »
Daily Weekly Monthly Yearly Custom
  High: Low: Average:
Temperature: 76.8 °F 51.2 °F 65.8 °F
Dew Point: 61.9 °F 48.4 °F 55.7 °F
Humidity: 91% 45% 72%
Wind Speed: 13.0mph 0.0mph 3mph
Wind Gust: 17.0mph - -
Wind- - WSW
Pressure: 30.08 in 30.02 in -
Precipitation: 0.00 in    
Historical Graphs
 
 
Tabular Data for August 6, 2017
Time Temperature Dew Point Pressure Wind Wind Speed Wind Gust Humidity Rainfall Rate (Hourly)
00:05 56.0 °F 49.9 °F 30.02 in Calm     80% 0.00 in
00:10 56.0 °F 49.9 °F 30.02 in Calm     80% 0.00 in
00:15 56.0 °F 50.3 °F 30.03 in Calm     81% 0.00 in
00:20 55.8 °F 50.1 °F 30.03 in Calm     81% 0.00 in
00:25 55.7 °F 50.0 °F 30.02 in Calm     81% 0.00 in
00:30 55.4 °F 49.7 °F 30.03 in Calm     81% 0.00 in
00:35 55.4 °F 50.0 °F 30.03 in Calm     82% 0.00 in
00:40 55.2 °F 49.8 °F 30.03 in Calm     82% 0.00 in
00:45 55.2 °F 49.8 °F 30.03 in Calm     82% 0.00 in
00:50 55.0 °F 49.6 °F 30.03 in Calm     82% 0.00 in
00:55 54.8 °F 49.7 °F 30.03 in Calm     83% 0.00 in
01:00 54.6 °F 49.5 °F 30.02 in Calm     83% 0.00 in
01:10 54.6 °F 49.5 °F 30.02 in Calm     83% 0.00 in
01:15 54.7 °F 49.6 °F 30.02 in Calm     83% 0.00 in
01:20 54.8 °F 50.1 °F 30.02 in Calm     84% 0.00 in
01:25 54.6 °F 49.9 °F 30.02 in Calm     84% 0.00 in
01:30 54.5 °F 50.1 °F 30.02 in Calm     85% 0.00 in
01:35 54.2 °F 49.8 °F 30.02 in Calm     85% 0.00 in
01:40 54.1 °F 49.7 °F 30.03 in Calm     85% 0.00 in
01:45 53.9 °F 49.5 °F 30.03 in Calm     85% 0.00 in
01:50 53.8 °F 49.4 °F 30.02 in Calm     85% 0.00 in
01:55 53.8 °F 49.4 °F 30.03 in Calm     85% 0.00 in
02:00 53.7 °F 49.3 °F 30.03 in Calm     85% 0.00 in
02:15 53.5 °F 49.4 °F 30.03 in Calm     86% 0.00 in
02:20 53.3 °F 49.2 °F 30.03 in Calm     86% 0.00 in
02:25 53.2 °F 49.4 °F 30.03 in Calm     87% 0.00 in
02:30 53.3 °F 49.5 °F 30.02 in Calm     87% 0.00 in
02:35 53.2 °F 49.4 °F 30.02 in Calm     87% 0.00 in
02:40 53.2 °F 49.4 °F 30.02 in Calm     87% 0.00 in
02:45 53.3 °F 49.8 °F 30.03 in Calm     88% 0.00 in
02:50 53.4 °F 49.6 °F 30.03 in Calm     87% 0.00 in
02:55 53.3 °F 49.5 °F 30.03 in Calm     87% 0.00 in
03:00 53.3 °F 49.8 °F 30.03 in Calm     88% 0.00 in
03:05 53.2 °F 49.7 °F 30.02 in Calm     88% 0.00 in
03:10 53.0 °F 49.2 °F 30.03 in Calm     87% 0.00 in
03:15 53.0 °F 49.5 °F 30.03 in Calm     88% 0.00 in
03:20 52.9 °F 49.4 °F 30.03 in Calm     88% 0.00 in
03:25 52.7 °F 49.2 °F 30.03 in Calm     88% 0.00 in
03:30 52.6 °F 49.1 °F 30.03 in Calm     88% 0.00 in
03:35 52.6 °F 49.1 °F 30.03 in Calm     88% 0.00 in
03:40 52.6 °F 49.1 °F 30.03 in Calm     88% 0.00 in
03:45 52.8 °F 49.3 °F 30.03 in Calm     88% 0.00 in
03:50 52.8 °F 49.3 °F 30.03 in Calm     88% 0.00 in
03:55 53.1 °F 49.6 °F 30.03 in Calm     88% 0.00 in
04:00 53.1 °F 49.6 °F 30.03 in Calm     88% 0.00 in
04:05 53.2 °F 49.7 °F 30.03 in Calm     88% 0.00 in
04:10 53.3 °F 49.8 °F 30.03 in Calm     88% 0.00 in
04:15 53.1 °F 49.6 °F 30.03 in Calm     88% 0.00 in
04:20 53.0 °F 49.5 °F 30.03 in Calm     88% 0.00 in
04:25 53.0 °F 49.5 °F 30.03 in Calm     88% 0.00 in
04:29 53.1 °F 49.6 °F 30.03 in Calm     88% 0.00 in
04:35 53.1 °F 49.6 °F 30.03 in Calm     88% 0.00 in
04:40 53.0 °F 49.5 °F 30.03 in Calm     88% 0.00 in
04:45 53.1 °F 49.6 °F 30.03 in Calm     88% 0.00 in
04:50 52.9 °F 49.4 °F 30.04 in Calm     88% 0.00 in
04:55 52.6 °F 49.1 °F 30.03 in Calm     88% 0.00 in
05:00 52.3 °F 48.9 °F 30.03 in Calm     88% 0.00 in
05:05 52.2 °F 48.8 °F 30.04 in Calm     88% 0.00 in
05:09 52.2 °F 49.1 °F 30.04 in Calm     89% 0.00 in
05:15 52.1 °F 49.0 °F 30.04 in Calm     89% 0.00 in
05:20 51.9 °F 48.8 °F 30.04 in Calm     89% 0.00 in
05:25 52.0 °F 48.9 °F 30.04 in Calm     89% 0.00 in
05:30 52.1 °F 49.0 °F 30.04 in Calm     89% 0.00 in
05:35 52.1 °F 49.0 °F 30.05 in Calm     89% 0.00 in
05:40 51.9 °F 49.1 °F 30.05 in Calm     90% 0.00 in
05:44 51.6 °F 48.5 °F 30.05 in Calm     89% 0.00 in
05:55 51.3 °F 48.5 °F 30.06 in Calm     90% 0.00 in
06:00 51.2 °F 48.4 °F 30.06 in Calm     90% 0.00 in
06:05 51.3 °F 48.5 °F 30.06 in Calm     90% 0.00 in
06:10 51.2 °F 48.4 °F 30.05 in Calm     90% 0.00 in
06:14 51.5 °F 48.7 °F 30.05 in Calm     90% 0.00 in
06:20 51.6 °F 49.1 °F 30.05 in Calm     91% 0.00 in
06:25 51.6 °F 49.1 °F 30.05 in Calm     91% 0.00 in
06:30 51.5 °F 49.0 °F 30.06 in Calm     91% 0.00 in
06:35 51.7 °F 49.2 °F 30.06 in Calm     91% 0.00 in
06:40 51.9 °F 49.4 °F 30.06 in Calm     91% 0.00 in
06:45 52.1 °F 49.6 °F 30.06 in Calm     91% 0.00 in
06:50 52.2 °F 49.7 °F 30.06 in Calm     91% 0.00 in
06:55 52.4 °F 49.8 °F 30.06 in Calm     91% 0.00 in
06:59 52.7 °F 50.1 °F 30.06 in Calm     91% 0.00 in
07:04 53.1 °F 50.5 °F 30.06 in Calm     91% 0.00 in
07:10 53.5 °F 50.6 °F 30.06 in Calm     90% 0.00 in
07:15 54.0 °F 51.1 °F 30.07 in Calm     90% 0.00 in
07:20 54.6 °F 51.7 °F 30.07 in Calm     90% 0.00 in
07:24 55.2 °F 52.0 °F 30.07 in Calm     89% 0.00 in
07:35 56.4 °F 52.9 °F 30.07 in Calm     88% 0.00 in
07:40 56.9 °F 53.1 °F 30.07 in Calm     87% 0.00 in
07:45 57.5 °F 53.3 °F 30.07 in Calm     86% 0.00 in
07:50 58.0 °F 53.5 °F 30.07 in SSE 2.0 mph 3.0 mph 85% 0.00 in
07:54 58.6 °F 53.8 °F 30.07 in South 1.0 mph 3.0 mph 84% 0.00 in
08:00 59.1 °F 53.9 °F 30.07 in South 1.0 mph 4.0 mph 83% 0.00 in
08:05 59.4 °F 53.9 °F 30.07 in SSW 2.0 mph 4.0 mph 82% 0.00 in
08:10 59.9 °F 54.4 °F 30.07 in SSW 1.0 mph 4.0 mph 82% 0.00 in
08:15 60.3 °F 54.8 °F 30.07 in SSW 1.0 mph 3.0 mph 82% 0.00 in
08:20 60.8 °F 54.9 °F 30.07 in SW 1.0 mph 4.0 mph 81% 0.00 in
08:24 61.3 °F 55.1 °F 30.07 in SSW 3.0 mph 4.0 mph 80% 0.00 in
08:29 61.7 °F 55.1 °F 30.08 in WSW 2.0 mph 4.0 mph 79% 0.00 in
08:35 62.1 °F 55.2 °F 30.08 in SW 2.0 mph 6.0 mph 78% 0.00 in
08:40 62.3 °F 55.4 °F 30.08 in South 3.0 mph 5.0 mph 78% 0.00 in
08:45 62.8 °F 55.5 °F 30.08 in Calm   5.0 mph 77% 0.00 in
08:50 63.1 °F 55.4 °F 30.08 in SSW 2.0 mph 5.0 mph 76% 0.00 in
08:55 63.7 °F 56.0 °F 30.08 in SSW 2.0 mph 5.0 mph 76% 0.00 in
08:59 64.3 °F 55.8 °F 30.08 in SSW 2.0 mph 6.0 mph 74% 0.00 in
09:05 65.1 °F 57.0 °F 30.07 in SW 2.0 mph 6.0 mph 75% 0.00 in
09:10 65.6 °F 56.3 °F 30.08 in SW 3.0 mph 5.0 mph 72% 0.00 in
09:15 66.7 °F 57.4 °F 30.07 in SSW 2.0 mph 5.0 mph 72% 0.00 in
09:20 67.0 °F 57.3 °F 30.08 in WSW 2.0 mph 5.0 mph 71% 0.00 in
09:25 67.1 °F 57.4 °F 30.08 in SSW 3.0 mph 6.0 mph 71% 0.00 in
09:29 67.1 °F 56.6 °F 30.07 in SSW 3.0 mph 7.0 mph 69% 0.00 in
09:34 67.6 °F 57.5 °F 30.07 in SW 3.0 mph 5.0 mph 70% 0.00 in
09:40 68.2 °F 57.6 °F 30.07 in SW 3.0 mph 6.0 mph 69% 0.00 in
09:44 69.1 °F 58.5 °F 30.07 in SSW 1.0 mph 6.0 mph 69% 0.00 in
09:49 69.7 °F 59.1 °F 30.07 in SW 2.0 mph 7.0 mph 69% 0.00 in
09:54 69.7 °F 59.1 °F 30.07 in WSW 6.0 mph 6.0 mph 69% 0.00 in
10:00 70.1 °F 58.6 °F 30.07 in WSW 3.0 mph 9.0 mph 67% 0.00 in
10:04 70.4 °F 59.3 °F 30.06 in SW 4.0 mph 9.0 mph 68% 0.00 in
10:09 70.9 °F 59.8 °F 30.06 in SW 4.0 mph 8.0 mph 68% 0.00 in
10:14 70.9 °F 58.5 °F 30.06 in SW 4.0 mph 8.0 mph 65% 0.00 in
10:20 71.3 °F 59.8 °F 30.06 in WSW 4.0 mph 8.0 mph 67% 0.00 in
10:25 71.8 °F 59.0 °F 30.06 in SW 7.0 mph 9.0 mph 64% 0.00 in
10:30 71.7 °F 59.3 °F 30.06 in SW 10.0 mph 14.0 mph 65% 0.00 in
10:35 71.6 °F 58.8 °F 30.06 in SW 7.0 mph 11.0 mph 64% 0.00 in
10:39 71.7 °F 58.4 °F 30.06 in West 4.0 mph 8.0 mph 63% 0.00 in
10:44 71.3 °F 58.1 °F 30.06 in WSW 3.0 mph 10.0 mph 63% 0.00 in
10:49 72.6 °F 58.8 °F 30.07 in South 3.0 mph 9.0 mph 62% 0.00 in
10:54 72.4 °F 58.2 °F 30.06 in SW 3.0 mph 11.0 mph 61% 0.00 in
10:59 72.0 °F 58.7 °F 30.06 in WSW 2.0 mph 9.0 mph 63% 0.00 in
11:04 72.8 °F 59.0 °F 30.07 in WSW 5.0 mph 12.0 mph 62% 0.00 in
11:10 72.6 °F 58.8 °F 30.07 in SW 6.0 mph 12.0 mph 62% 0.00 in
11:15 73.1 °F 59.3 °F 30.07 in SSW 5.0 mph 12.0 mph 62% 0.00 in
11:20 73.4 °F 59.1 °F 30.07 in SW 4.0 mph 10.0 mph 61% 0.00 in
11:30 74.2 °F 59.4 °F 30.07 in West 6.0 mph 11.0 mph 60% 0.00 in
11:35 73.7 °F 58.5 °F 30.07 in West 4.0 mph 9.0 mph 59% 0.00 in
11:39 74.0 °F 59.2 °F 30.07 in WSW 5.0 mph 11.0 mph 60% 0.00 in
11:44 73.4 °F 57.2 °F 30.07 in SW 9.0 mph 13.0 mph 57% 0.00 in
11:49 74.0 °F 58.8 °F 30.07 in WSW 4.0 mph 11.0 mph 59% 0.00 in
11:50 74.0 °F 58.8 °F 30.07 in SW 7.0 mph 13.0 mph 59% 0.00 in
11:54 74.3 °F 57.6 °F 30.07 in SW 9.0 mph 12.0 mph 56% 0.00 in
11:59 73.9 °F 56.7 °F 30.07 in West 7.0 mph 15.0 mph 55% 0.00 in
12:09 72.1 °F 55.5 °F 30.07 in WSW 6.0 mph 13.0 mph 56% 0.00 in
12:14 73.4 °F 56.2 °F 30.07 in WSW 6.0 mph 13.0 mph 55% 0.00 in
12:19 75.4 °F 57.6 °F 30.07 in WSW 5.0 mph 13.0 mph 54% 0.00 in
12:24 74.9 °F 56.1 °F 30.07 in WSW 5.0 mph 13.0 mph 52% 0.00 in
12:30 74.6 °F 55.3 °F 30.07 in WSW 6.0 mph 12.0 mph 51% 0.00 in
12:35 75.6 °F 55.1 °F 30.07 in West 5.0 mph 9.0 mph 49% 0.00 in
12:39 75.4 °F 54.3 °F 30.07 in WSW 6.0 mph 13.0 mph 48% 0.00 in
12:44 75.0 °F 54.5 °F 30.06 in WSW 6.0 mph 14.0 mph 49% 0.00 in
12:50 75.1 °F 55.2 °F 30.07 in SW 5.0 mph 14.0 mph 50% 0.00 in
12:54 75.0 °F 54.5 °F 30.07 in SW 8.0 mph 12.0 mph 49% 0.00 in
12:59 75.9 °F 56.5 °F 30.06 in West 4.0 mph 11.0 mph 51% 0.00 in
13:04 75.5 °F 53.3 °F 30.07 in WSW 8.0 mph 16.0 mph 46% 0.00 in
13:09 75.1 °F 54.6 °F 30.06 in SW 8.0 mph 11.0 mph 49% 0.00 in
13:14 75.0 °F 53.4 °F 30.06 in WSW 6.0 mph 11.0 mph 47% 0.00 in
13:19 75.4 °F 55.5 °F 30.06 in WSW 6.0 mph 14.0 mph 50% 0.00 in
13:25 75.6 °F 53.9 °F 30.06 in WSW 6.0 mph 14.0 mph 47% 0.00 in
13:30 75.3 °F 53.1 °F 30.06 in SW 5.0 mph 13.0 mph 46% 0.00 in
13:35 75.7 °F 55.2 °F 30.06 in SW 5.0 mph 10.0 mph 49% 0.00 in
13:40 76.4 °F 57.5 °F 30.06 in West 7.0 mph 10.0 mph 52% 0.00 in
13:44 76.0 °F 53.7 °F 30.06 in WSW 6.0 mph 15.0 mph 46% 0.00 in
13:49 76.8 °F 55.6 °F 30.06 in WSW 6.0 mph 15.0 mph 48% 0.00 in
13:54 76.1 °F 55.5 °F 30.06 in WSW 5.0 mph 13.0 mph 49% 0.00 in
13:59 75.6 °F 55.1 °F 30.06 in West 7.0 mph 14.0 mph 49% 0.00 in
14:09 75.5 °F 53.3 °F 30.06 in WNW 5.0 mph 13.0 mph 46% 0.00 in
14:14 75.5 °F 53.9 °F 30.05 in WSW 5.0 mph 13.0 mph 47% 0.00 in
14:19 75.0 °F 52.2 °F 30.05 in WSW 6.0 mph 13.0 mph 45% 0.00 in
14:24 74.9 °F 53.9 °F 30.06 in West 5.0 mph 8.0 mph 48% 0.00 in
14:30 74.7 °F 53.7 °F 30.05 in WSW 4.0 mph 10.0 mph 48% 0.00 in
14:34 74.5 °F 53.5 °F 30.06 in WNW 12.0 mph 12.0 mph 48% 0.00 in
14:39 74.4 °F 55.1 °F 30.06 in SW 7.0 mph 12.0 mph 51% 0.00 in
14:44 74.1 °F 53.7 °F 30.05 in SW 6.0 mph 13.0 mph 49% 0.00 in
14:49 75.0 °F 53.4 °F 30.05 in SW 6.0 mph 13.0 mph 47% 0.00 in
14:54 74.7 °F 54.8 °F 30.05 in WSW 6.0 mph 16.0 mph 50% 0.00 in
14:59 75.1 °F 55.2 °F 30.05 in WSW 6.0 mph 16.0 mph 50% 0.00 in
15:05 75.0 °F 56.7 °F 30.05 in WSW 5.0 mph 11.0 mph 53% 0.00 in
15:10 76.6 °F 57.7 °F 30.05 in SW 8.0 mph 10.0 mph 52% 0.00 in
15:15 76.7 °F 57.7 °F 30.05 in SW 13.0 mph 13.0 mph 52% 0.00 in
15:19 76.7 °F 57.2 °F 30.04 in WSW 7.0 mph 13.0 mph 51% 0.00 in
15:24 76.5 °F 57.0 °F 30.05 in WSW 7.0 mph 16.0 mph 51% 0.00 in
15:29 76.6 °F 58.2 °F 30.05 in WSW 7.0 mph 13.0 mph 53% 0.00 in
15:34 76.8 °F 58.4 °F 30.04 in WSW 5.0 mph 11.0 mph 53% 0.00 in
15:39 76.0 °F 57.6 °F 30.04 in WSW 6.0 mph 14.0 mph 53% 0.00 in
15:45 74.7 °F 56.9 °F 30.04 in WNW 7.0 mph 13.0 mph 54% 0.00 in
15:49 75.9 °F 57.5 °F 30.04 in WSW 7.0 mph 13.0 mph 53% 0.00 in
15:54 76.1 °F 58.2 °F 30.04 in SW 6.0 mph 12.0 mph 54% 0.00 in
15:59 75.9 °F 57.5 °F 30.04 in SW 7.0 mph 14.0 mph 53% 0.00 in
16:05 75.8 °F 58.5 °F 30.04 in SW 7.0 mph 17.0 mph 55% 0.00 in
16:09 75.6 °F 58.8 °F 30.04 in SW 6.0 mph 12.0 mph 56% 0.00 in
16:15 75.6 °F 59.8 °F 30.03 in SW 11.0 mph 11.0 mph 58% 0.00 in
16:19 75.9 °F 59.1 °F 30.03 in SW 7.0 mph 12.0 mph 56% 0.00 in
16:29 75.9 °F 60.5 °F 30.03 in SW 6.0 mph 12.0 mph 59% 0.00 in
16:34 74.9 °F 60.1 °F 30.03 in WSW 6.0 mph 12.0 mph 60% 0.00 in
16:39 75.2 °F 60.8 °F 30.03 in WSW 5.0 mph 12.0 mph 61% 0.00 in
16:44 74.9 °F 60.1 °F 30.03 in SW 5.0 mph 11.0 mph 60% 0.00 in
16:49 74.5 °F 59.7 °F 30.03 in WNW 5.0 mph 12.0 mph 60% 0.00 in
16:54 74.1 °F 61.1 °F 30.03 in WSW 6.0 mph 12.0 mph 64% 0.00 in
16:59 74.3 °F 60.4 °F 30.03 in SW 8.0 mph 11.0 mph 62% 0.00 in
17:04 75.4 °F 61.0 °F 30.03 in SSW 4.0 mph 9.0 mph 61% 0.00 in
17:09 74.8 °F 59.0 °F 30.02 in WSW 6.0 mph 14.0 mph 58% 0.00 in
17:14 74.2 °F 59.4 °F 30.03 in WNW 8.0 mph 13.0 mph 60% 0.00 in
17:20 73.7 °F 59.4 °F 30.03 in West 6.0 mph 16.0 mph 61% 0.00 in
17:24 73.9 °F 59.6 °F 30.03 in WSW 7.0 mph 16.0 mph 61% 0.00 in
17:29 74.6 °F 60.3 °F 30.03 in SW 5.0 mph 11.0 mph 61% 0.00 in
17:34 74.9 °F 59.1 °F 30.03 in SW 6.0 mph 11.0 mph 58% 0.00 in
17:39 75.1 °F 60.3 °F 30.03 in WSW 6.0 mph 15.0 mph 60% 0.00 in
17:44 74.1 °F 59.8 °F 30.03 in SSW 4.0 mph 17.0 mph 61% 0.00 in
17:49 74.1 °F 60.2 °F 30.03 in WSW 4.0 mph 13.0 mph 62% 0.00 in
17:54 74.2 °F 60.8 °F 30.03 in WSW 6.0 mph 13.0 mph 63% 0.00 in
17:59 73.9 °F 61.4 °F 30.03 in WSW 7.0 mph 10.0 mph 65% 0.00 in
18:04 73.4 °F 60.9 °F 30.02 in West 4.0 mph 12.0 mph 65% 0.00 in
18:09 72.9 °F 60.4 °F 30.02 in WSW 6.0 mph 13.0 mph 65% 0.00 in
18:14 73.2 °F 61.2 °F 30.02 in WSW 3.0 mph 10.0 mph 66% 0.00 in
18:19 73.1 °F 61.5 °F 30.03 in West 6.0 mph 14.0 mph 67% 0.00 in
18:24 72.9 °F 61.3 °F 30.03 in West 11.0 mph 11.0 mph 67% 0.00 in
18:29 72.9 °F 61.7 °F 30.03 in WSW 5.0 mph 11.0 mph 68% 0.00 in
18:34 72.9 °F 61.7 °F 30.03 in WSW 5.0 mph 14.0 mph 68% 0.00 in
18:39 72.7 °F 60.7 °F 30.03 in WSW 6.0 mph 14.0 mph 66% 0.00 in
18:44 72.5 °F 60.5 °F 30.03 in WSW 7.0 mph 14.0 mph 66% 0.00 in
18:49 72.5 °F 60.5 °F 30.03 in WSW 8.0 mph 13.0 mph 66% 0.00 in
18:54 72.4 °F 60.4 °F 30.03 in SW 6.0 mph 13.0 mph 66% 0.00 in
18:59 72.2 °F 60.6 °F 30.03 in WSW 7.0 mph 14.0 mph 67% 0.00 in
19:04 72.0 °F 61.3 °F 30.03 in WSW 7.0 mph 14.0 mph 69% 0.00 in
19:09 71.9 °F 61.2 °F 30.03 in WSW 9.0 mph 13.0 mph 69% 0.00 in
19:14 71.7 °F 61.8 °F 30.03 in WSW 3.0 mph 11.0 mph 71% 0.00 in
19:19 71.6 °F 61.7 °F 30.03 in West 9.0 mph 13.0 mph 71% 0.00 in
19:24 71.5 °F 61.6 °F 30.03 in WSW 3.0 mph 12.0 mph 71% 0.00 in
19:29 71.5 °F 61.2 °F 30.03 in SSW 3.0 mph 13.0 mph 70% 0.00 in
19:34 71.5 °F 61.2 °F 30.03 in WSW 6.0 mph 13.0 mph 70% 0.00 in
19:39 71.4 °F 61.1 °F 30.03 in WSW 5.0 mph 11.0 mph 70% 0.00 in
19:44 71.5 °F 61.6 °F 30.03 in WSW 4.0 mph 8.0 mph 71% 0.00 in
19:49 71.4 °F 61.9 °F 30.03 in WSW 4.0 mph 8.0 mph 72% 0.00 in
19:54 71.3 °F 61.8 °F 30.03 in West 4.0 mph 9.0 mph 72% 0.00 in
20:00 71.2 °F 61.7 °F 30.03 in West 4.0 mph 9.0 mph 72% 0.00 in
20:04 71.2 °F 61.7 °F 30.03 in West 3.0 mph 6.0 mph 72% 0.00 in
20:09 71.2 °F 61.7 °F 30.03 in West 6.0 mph 8.0 mph 72% 0.00 in
20:14 71.0 °F 61.1 °F 30.04 in WSW 6.0 mph 9.0 mph 71% 0.00 in
20:19 70.9 °F 61.0 °F 30.03 in WSW 4.0 mph 10.0 mph 71% 0.00 in
20:24 70.7 °F 61.2 °F 30.03 in West 3.0 mph 9.0 mph 72% 0.00 in
20:29 70.6 °F 60.7 °F 30.03 in SW 4.0 mph 7.0 mph 71% 0.00 in
20:34 70.5 °F 60.6 °F 30.03 in WSW 2.0 mph 6.0 mph 71% 0.00 in
20:39 70.6 °F 60.7 °F 30.03 in WSW 3.0 mph 6.0 mph 71% 0.00 in
20:44 70.4 °F 60.5 °F 30.02 in WSW 3.0 mph 9.0 mph 71% 0.00 in
20:49 70.3 °F 60.4 °F 30.02 in WSW 3.0 mph 9.0 mph 71% 0.00 in
20:54 70.1 °F 60.3 °F 30.03 in West 3.0 mph 8.0 mph 71% 0.00 in
20:59 69.9 °F 60.1 °F 30.02 in West 3.0 mph 8.0 mph 71% 0.00 in
21:04 69.8 °F 60.0 °F 30.03 in West 3.0 mph 7.0 mph 71% 0.00 in
21:10 69.6 °F 59.8 °F 30.03 in West 3.0 mph 7.0 mph 71% 0.00 in
21:14 69.4 °F 60.0 °F 30.03 in West 2.0 mph 5.0 mph 72% 0.00 in
21:19 69.2 °F 59.8 °F 30.03 in West 2.0 mph 5.0 mph 72% 0.00 in
21:24 69.2 °F 59.8 °F 30.03 in WSW 1.0 mph 4.0 mph 72% 0.00 in
21:29 68.9 °F 59.9 °F 30.03 in WSW 1.0 mph 3.0 mph 73% 0.00 in
21:34 68.7 °F 60.1 °F 30.03 in Calm   4.0 mph 74% 0.00 in
21:39 68.5 °F 59.9 °F 30.03 in Calm     74% 0.00 in
21:49 68.5 °F 60.3 °F 30.03 in WSW 1.0 mph 4.0 mph 75% 0.00 in
21:54 68.5 °F 60.3 °F 30.04 in WSW 1.0 mph 4.0 mph 75% 0.00 in
21:59 68.5 °F 60.3 °F 30.04 in WSW 1.0 mph 4.0 mph 75% 0.00 in
22:05 68.3 °F 60.1 °F 30.04 in Calm   2.0 mph 75% 0.00 in
22:09 68.1 °F 59.9 °F 30.04 in Calm     75% 0.00 in
22:14 68.1 °F 59.9 °F 30.04 in Calm   7.0 mph 75% 0.00 in
22:19 68.4 °F 60.2 °F 30.04 in WSW 3.0 mph 4.0 mph 75% 0.00 in
22:24 68.8 °F 60.2 °F 30.04 in West 5.0 mph 5.0 mph 74% 0.00 in
22:29 69.1 °F 60.1 °F 30.04 in South 3.0 mph 7.0 mph 73% 0.00 in
22:34 69.4 °F 60.4 °F 30.04 in Calm   6.0 mph 73% 0.00 in
22:39 69.5 °F 60.5 °F 30.04 in SW 4.0 mph 6.0 mph 73% 0.00 in
22:44 69.5 °F 60.5 °F 30.04 in SW 1.0 mph 6.0 mph 73% 0.00 in
22:49 69.6 °F 60.6 °F 30.04 in SW 2.0 mph 6.0 mph 73% 0.00 in
22:54 69.5 °F 60.5 °F 30.04 in SW 2.0 mph 5.0 mph 73% 0.00 in
22:59 69.5 °F 60.5 °F 30.04 in SW 1.0 mph 4.0 mph 73% 0.00 in
23:04 69.3 °F 60.7 °F 30.04 in SW 1.0 mph 5.0 mph 74% 0.00 in
23:09 69.2 °F 60.6 °F 30.04 in WSW 1.0 mph 5.0 mph 74% 0.00 in
23:14 69.2 °F 60.9 °F 30.04 in Calm   5.0 mph 75% 0.00 in
23:19 68.9 °F 60.6 °F 30.04 in SSW 2.0 mph 4.0 mph 75% 0.00 in
23:24 68.7 °F 60.8 °F 30.04 in SW 1.0 mph 5.0 mph 76% 0.00 in
23:29 68.6 °F 61.1 °F 30.04 in SW 1.0 mph 4.0 mph 77% 0.00 in
23:34 68.7 °F 61.2 °F 30.04 in SSW 2.0 mph 5.0 mph 77% 0.00 in
23:39 68.6 °F 61.1 °F 30.04 in Calm   3.0 mph 77% 0.00 in
23:44 68.5 °F 61.4 °F 30.04 in SSW 3.0 mph 4.0 mph 78% 0.00 in
23:49 68.2 °F 61.1 °F 30.04 in Calm   4.0 mph 78% 0.00 in
23:54 67.9 °F 60.8 °F 30.04 in SSW 1.0 mph 4.0 mph 78% 0.00 in
23:59 67.6 °F 60.9 °F 30.04 in South 1.0 mph 3.0 mph 79% 0.00 in
Buffalo, New York, USA
Compliments of Weather Underground - 2.5 mb